sensor_id;sensor_type;location;lat;lon;timestamp;P1;durP1;ratioP1;P2;durP2;ratioP2
15573;SDS011;7888;46.748;8.102;2022-10-16T00:01:22;2.70;;;0.60;;
15573;SDS011;7888;46.748;8.102;2022-10-16T00:03:51;4.10;;;0.57;;
15573;SDS011;7888;46.748;8.102;2022-10-16T00:06:18;2.47;;;0.70;;
15573;SDS011;7888;46.748;8.102;2022-10-16T00:08:46;2.93;;;0.70;;
15573;SDS011;7888;46.748;8.102;2022-10-16T00:11:17;1.63;;;0.70;;
15573;SDS011;7888;46.748;8.102;2022-10-16T00:13:50;1.47;;;0.50;;
15573;SDS011;7888;46.748;8.102;2022-10-16T00:16:21;3.23;;;0.50;;
15573;SDS011;7888;46.748;8.102;2022-10-16T00:18:47;2.53;;;0.60;;
15573;SDS011;7888;46.748;8.102;2022-10-16T00:21:17;1.17;;;0.50;;
15573;SDS011;7888;46.748;8.102;2022-10-16T00:23:54;2.73;;;0.47;;
15573;SDS011;7888;46.748;8.102;2022-10-16T00:26:24;0.50;;;0.50;;
15573;SDS011;7888;46.748;8.102;2022-10-16T00:28:52;1.83;;;0.50;;
15573;SDS011;7888;46.748;8.102;2022-10-16T00:31:20;1.90;;;0.50;;
15573;SDS011;7888;46.748;8.102;2022-10-16T00:33:47;1.30;;;0.37;;
15573;SDS011;7888;46.748;8.102;2022-10-16T00:36:15;0.80;;;0.40;;
15573;SDS011;7888;46.748;8.102;2022-10-16T00:38:44;1.43;;;0.30;;
15573;SDS011;7888;46.748;8.102;2022-10-16T00:41:12;3.17;;;0.60;;
15573;SDS011;7888;46.748;8.102;2022-10-16T00:43:42;2.60;;;0.50;;
15573;SDS011;7888;46.748;8.102;2022-10-16T00:51:45;3.67;;;0.50;;
15573;SDS011;7888;46.748;8.102;2022-10-16T00:54:19;2.40;;;0.40;;
15573;SDS011;7888;46.748;8.102;2022-10-16T00:56:57;4.00;;;0.50;;
15573;SDS011;7888;46.748;8.102;2022-10-16T00:59:34;1.93;;;0.57;;
15573;SDS011;7888;46.748;8.102;2022-10-16T01:02:04;1.47;;;0.50;;
15573;SDS011;7888;46.748;8.102;2022-10-16T01:04:34;3.10;;;0.40;;
15573;SDS011;7888;46.748;8.102;2022-10-16T01:10:13;3.30;;;0.50;;
15573;SDS011;7888;46.748;8.102;2022-10-16T01:12:59;4.07;;;0.50;;
15573;SDS011;7888;46.748;8.102;2022-10-16T01:18:34;2.67;;;0.30;;
15573;SDS011;7888;46.748;8.102;2022-10-16T01:21:45;3.73;;;0.47;;
15573;SDS011;7888;46.748;8.102;2022-10-16T01:29:54;0.20;;;0.20;;
15573;SDS011;7888;46.748;8.102;2022-10-16T01:40:41;0.83;;;0.20;;
15573;SDS011;7888;46.748;8.102;2022-10-16T01:43:15;0.30;;;0.20;;
15573;SDS011;7888;46.748;8.102;2022-10-16T01:45:49;0.67;;;0.20;;
15573;SDS011;7888;46.748;8.102;2022-10-16T01:48:18;1.77;;;0.20;;
15573;SDS011;7888;46.748;8.102;2022-10-16T01:50:56;1.30;;;0.20;;
15573;SDS011;7888;46.748;8.102;2022-10-16T01:53:40;2.87;;;0.30;;
15573;SDS011;7888;46.748;8.102;2022-10-16T01:56:12;0.70;;;0.30;;
15573;SDS011;7888;46.748;8.102;2022-10-16T01:58:43;1.10;;;0.40;;
15573;SDS011;7888;46.748;8.102;2022-10-16T02:01:15;1.03;;;0.30;;
15573;SDS011;7888;46.748;8.102;2022-10-16T02:03:44;3.10;;;0.30;;
15573;SDS011;7888;46.748;8.102;2022-10-16T02:06:16;3.80;;;0.30;;
15573;SDS011;7888;46.748;8.102;2022-10-16T02:08:42;0.77;;;0.30;;
15573;SDS011;7888;46.748;8.102;2022-10-16T02:11:09;1.13;;;0.23;;
15573;SDS011;7888;46.748;8.102;2022-10-16T02:13:44;1.00;;;0.30;;
15573;SDS011;7888;46.748;8.102;2022-10-16T02:16:15;0.20;;;0.20;;
15573;SDS011;7888;46.748;8.102;2022-10-16T02:18:42;2.27;;;0.20;;
15573;SDS011;7888;46.748;8.102;2022-10-16T02:21:54;1.13;;;0.30;;
15573;SDS011;7888;46.748;8.102;2022-10-16T02:24:14;1.30;;;0.20;;
15573;SDS011;7888;46.748;8.102;2022-10-16T02:26:49;0.23;;;0.20;;
15573;SDS011;7888;46.748;8.102;2022-10-16T02:29:26;0.83;;;0.20;;
15573;SDS011;7888;46.748;8.102;2022-10-16T02:31:58;1.30;;;0.20;;
15573;SDS011;7888;46.748;8.102;2022-10-16T02:34:29;0.37;;;0.30;;
15573;SDS011;7888;46.748;8.102;2022-10-16T02:36:58;0.50;;;0.20;;
15573;SDS011;7888;46.748;8.102;2022-10-16T02:39:28;1.33;;;0.30;;
15573;SDS011;7888;46.748;8.102;2022-10-16T02:41:55;0.30;;;0.30;;
15573;SDS011;7888;46.748;8.102;2022-10-16T02:44:21;0.43;;;0.20;;
15573;SDS011;7888;46.748;8.102;2022-10-16T02:46:47;1.73;;;0.30;;
15573;SDS011;7888;46.748;8.102;2022-10-16T02:49:12;1.30;;;0.20;;
15573;SDS011;7888;46.748;8.102;2022-10-16T02:51:38;0.63;;;0.20;;
15573;SDS011;7888;46.748;8.102;2022-10-16T02:54:04;0.20;;;0.20;;
15573;SDS011;7888;46.748;8.102;2022-10-16T02:56:30;1.37;;;0.27;;
15573;SDS011;7888;46.748;8.102;2022-10-16T02:58:56;3.47;;;0.27;;
15573;SDS011;7888;46.748;8.102;2022-10-16T03:01:22;0.97;;;0.27;;
15573;SDS011;7888;46.748;8.102;2022-10-16T03:03:48;1.60;;;0.20;;
15573;SDS011;7888;46.748;8.102;2022-10-16T03:06:15;0.60;;;0.10;;
15573;SDS011;7888;46.748;8.102;2022-10-16T03:08:41;0.40;;;0.30;;
15573;SDS011;7888;46.748;8.102;2022-10-16T03:11:07;3.57;;;0.20;;
15573;SDS011;7888;46.748;8.102;2022-10-16T03:13:33;1.07;;;0.30;;
15573;SDS011;7888;46.748;8.102;2022-10-16T03:15:59;2.73;;;0.40;;
15573;SDS011;7888;46.748;8.102;2022-10-16T03:18:24;2.07;;;0.30;;
15573;SDS011;7888;46.748;8.102;2022-10-16T03:20:50;0.60;;;0.20;;
15573;SDS011;7888;46.748;8.102;2022-10-16T03:23:16;3.50;;;0.30;;
15573;SDS011;7888;46.748;8.102;2022-10-16T03:25:42;2.07;;;0.50;;
15573;SDS011;7888;46.748;8.102;2022-10-16T03:28:08;1.63;;;0.30;;
15573;SDS011;7888;46.748;8.102;2022-10-16T03:30:34;0.90;;;0.40;;
15573;SDS011;7888;46.748;8.102;2022-10-16T03:32:59;2.10;;;0.40;;
15573;SDS011;7888;46.748;8.102;2022-10-16T03:35:25;0.90;;;0.20;;
15573;SDS011;7888;46.748;8.102;2022-10-16T03:37:51;3.20;;;0.30;;
15573;SDS011;7888;46.748;8.102;2022-10-16T03:40:17;0.87;;;0.30;;
15573;SDS011;7888;46.748;8.102;2022-10-16T03:42:43;0.53;;;0.20;;
15573;SDS011;7888;46.748;8.102;2022-10-16T03:45:10;0.63;;;0.20;;
15573;SDS011;7888;46.748;8.102;2022-10-16T03:47:36;2.33;;;0.30;;
15573;SDS011;7888;46.748;8.102;2022-10-16T03:50:02;1.67;;;0.40;;
15573;SDS011;7888;46.748;8.102;2022-10-16T03:52:29;2.40;;;0.50;;
15573;SDS011;7888;46.748;8.102;2022-10-16T03:54:57;3.83;;;0.37;;
15573;SDS011;7888;46.748;8.102;2022-10-16T03:57:22;0.50;;;0.20;;
15573;SDS011;7888;46.748;8.102;2022-10-16T03:59:48;0.33;;;0.30;;
15573;SDS011;7888;46.748;8.102;2022-10-16T04:02:14;1.27;;;0.23;;
15573;SDS011;7888;46.748;8.102;2022-10-16T04:04:40;0.50;;;0.30;;
15573;SDS011;7888;46.748;8.102;2022-10-16T04:07:06;0.60;;;0.40;;
15573;SDS011;7888;46.748;8.102;2022-10-16T04:09:32;0.77;;;0.40;;
15573;SDS011;7888;46.748;8.102;2022-10-16T04:11:58;0.60;;;0.30;;
15573;SDS011;7888;46.748;8.102;2022-10-16T04:14:23;0.93;;;0.47;;
15573;SDS011;7888;46.748;8.102;2022-10-16T04:16:49;1.50;;;0.30;;
15573;SDS011;7888;46.748;8.102;2022-10-16T04:19:15;1.40;;;0.30;;
15573;SDS011;7888;46.748;8.102;2022-10-16T04:21:41;2.20;;;0.60;;
15573;SDS011;7888;46.748;8.102;2022-10-16T04:24:07;1.60;;;0.27;;
15573;SDS011;7888;46.748;8.102;2022-10-16T04:26:33;2.20;;;0.40;;
15573;SDS011;7888;46.748;8.102;2022-10-16T04:28:58;2.30;;;0.20;;
15573;SDS011;7888;46.748;8.102;2022-10-16T04:31:24;1.00;;;0.40;;
15573;SDS011;7888;46.748;8.102;2022-10-16T04:33:50;1.43;;;0.30;;
15573;SDS011;7888;46.748;8.102;2022-10-16T04:36:16;4.43;;;0.50;;
15573;SDS011;7888;46.748;8.102;2022-10-16T04:38:42;2.90;;;0.40;;
15573;SDS011;7888;46.748;8.102;2022-10-16T04:41:07;1.30;;;0.30;;
15573;SDS011;7888;46.748;8.102;2022-10-16T04:43:33;1.23;;;0.30;;
15573;SDS011;7888;46.748;8.102;2022-10-16T04:45:59;1.30;;;0.20;;
15573;SDS011;7888;46.748;8.102;2022-10-16T04:48:26;0.73;;;0.20;;
15573;SDS011;7888;46.748;8.102;2022-10-16T04:50:52;0.90;;;0.30;;
15573;SDS011;7888;46.748;8.102;2022-10-16T04:53:18;0.40;;;0.30;;
15573;SDS011;7888;46.748;8.102;2022-10-16T04:55:44;1.07;;;0.50;;
15573;SDS011;7888;46.748;8.102;2022-10-16T04:58:10;1.60;;;0.80;;
15573;SDS011;7888;46.748;8.102;2022-10-16T05:00:36;0.50;;;0.40;;
15573;SDS011;7888;46.748;8.102;2022-10-16T05:03:03;0.60;;;0.50;;
15573;SDS011;7888;46.748;8.102;2022-10-16T05:05:32;1.30;;;0.50;;
15573;SDS011;7888;46.748;8.102;2022-10-16T05:07:59;1.60;;;1.03;;
15573;SDS011;7888;46.748;8.102;2022-10-16T05:10:24;2.10;;;0.97;;
15573;SDS011;7888;46.748;8.102;2022-10-16T05:12:50;2.53;;;0.80;;
15573;SDS011;7888;46.748;8.102;2022-10-16T05:15:16;3.20;;;0.80;;
15573;SDS011;7888;46.748;8.102;2022-10-16T05:17:43;2.17;;;0.60;;
15573;SDS011;7888;46.748;8.102;2022-10-16T05:20:09;1.73;;;0.50;;
15573;SDS011;7888;46.748;8.102;2022-10-16T05:22:36;0.67;;;0.60;;
15573;SDS011;7888;46.748;8.102;2022-10-16T05:25:02;1.53;;;0.57;;
15573;SDS011;7888;46.748;8.102;2022-10-16T05:27:28;0.33;;;0.30;;
15573;SDS011;7888;46.748;8.102;2022-10-16T05:29:53;0.33;;;0.33;;
15573;SDS011;7888;46.748;8.102;2022-10-16T05:32:19;1.87;;;0.60;;
15573;SDS011;7888;46.748;8.102;2022-10-16T05:34:45;1.80;;;0.70;;
15573;SDS011;7888;46.748;8.102;2022-10-16T05:37:11;1.23;;;0.60;;
15573;SDS011;7888;46.748;8.102;2022-10-16T05:39:37;1.83;;;0.53;;
15573;SDS011;7888;46.748;8.102;2022-10-16T05:42:04;2.67;;;0.63;;
15573;SDS011;7888;46.748;8.102;2022-10-16T05:44:31;2.07;;;0.50;;
15573;SDS011;7888;46.748;8.102;2022-10-16T05:46:57;3.87;;;0.50;;
15573;SDS011;7888;46.748;8.102;2022-10-16T05:49:23;1.30;;;0.40;;
15573;SDS011;7888;46.748;8.102;2022-10-16T05:51:49;2.20;;;0.50;;
15573;SDS011;7888;46.748;8.102;2022-10-16T05:54:15;2.00;;;0.40;;
15573;SDS011;7888;46.748;8.102;2022-10-16T05:56:41;3.83;;;0.60;;
15573;SDS011;7888;46.748;8.102;2022-10-16T05:59:07;0.93;;;0.50;;
15573;SDS011;7888;46.748;8.102;2022-10-16T06:01:33;4.33;;;0.70;;
15573;SDS011;7888;46.748;8.102;2022-10-16T06:04:00;1.73;;;0.80;;
15573;SDS011;7888;46.748;8.102;2022-10-16T06:06:27;4.77;;;2.00;;
15573;SDS011;7888;46.748;8.102;2022-10-16T06:08:55;1.90;;;1.60;;
15573;SDS011;7888;46.748;8.102;2022-10-16T06:11:23;3.47;;;1.90;;
15573;SDS011;7888;46.748;8.102;2022-10-16T06:13:54;2.17;;;1.80;;
15573;SDS011;7888;46.748;8.102;2022-10-16T06:16:22;3.93;;;1.40;;
15573;SDS011;7888;46.748;8.102;2022-10-16T06:18:50;1.87;;;1.40;;
15573;SDS011;7888;46.748;8.102;2022-10-16T06:21:19;5.57;;;2.00;;
15573;SDS011;7888;46.748;8.102;2022-10-16T06:23:50;2.70;;;1.10;;
15573;SDS011;7888;46.748;8.102;2022-10-16T06:26:17;1.47;;;1.00;;
15573;SDS011;7888;46.748;8.102;2022-10-16T06:28:46;1.47;;;1.00;;
15573;SDS011;7888;46.748;8.102;2022-10-16T06:31:12;2.87;;;1.30;;
15573;SDS011;7888;46.748;8.102;2022-10-16T06:33:39;3.80;;;0.90;;
15573;SDS011;7888;46.748;8.102;2022-10-16T06:36:07;3.67;;;1.20;;
15573;SDS011;7888;46.748;8.102;2022-10-16T06:38:39;4.07;;;1.00;;
15573;SDS011;7888;46.748;8.102;2022-10-16T06:41:06;1.60;;;1.07;;
15573;SDS011;7888;46.748;8.102;2022-10-16T06:43:36;3.00;;;0.90;;
15573;SDS011;7888;46.748;8.102;2022-10-16T06:46:02;1.77;;;0.60;;
15573;SDS011;7888;46.748;8.102;2022-10-16T06:48:30;1.60;;;0.60;;
15573;SDS011;7888;46.748;8.102;2022-10-16T06:53:38;2.73;;;0.80;;
15573;SDS011;7888;46.748;8.102;2022-10-16T06:56:11;3.83;;;0.90;;
15573;SDS011;7888;46.748;8.102;2022-10-16T06:58:43;7.07;;;1.53;;
15573;SDS011;7888;46.748;8.102;2022-10-16T07:01:10;2.73;;;0.80;;
15573;SDS011;7888;46.748;8.102;2022-10-16T07:03:38;1.23;;;1.00;;
15573;SDS011;7888;46.748;8.102;2022-10-16T07:06:07;4.63;;;1.10;;
15573;SDS011;7888;46.748;8.102;2022-10-16T07:08:37;3.80;;;1.30;;
15573;SDS011;7888;46.748;8.102;2022-10-16T07:11:12;1.47;;;1.00;;
15573;SDS011;7888;46.748;8.102;2022-10-16T07:13:43;2.43;;;0.80;;
15573;SDS011;7888;46.748;8.102;2022-10-16T07:16:15;1.90;;;1.00;;
15573;SDS011;7888;46.748;8.102;2022-10-16T07:18:44;1.60;;;0.60;;
15573;SDS011;7888;46.748;8.102;2022-10-16T07:21:14;1.20;;;0.60;;
15573;SDS011;7888;46.748;8.102;2022-10-16T07:23:42;0.67;;;0.40;;
15573;SDS011;7888;46.748;8.102;2022-10-16T07:26:09;0.37;;;0.30;;
15573;SDS011;7888;46.748;8.102;2022-10-16T07:28:36;0.63;;;0.57;;
15573;SDS011;7888;46.748;8.102;2022-10-16T07:31:04;2.63;;;0.60;;
15573;SDS011;7888;46.748;8.102;2022-10-16T07:33:33;1.03;;;0.57;;
15573;SDS011;7888;46.748;8.102;2022-10-16T07:36:00;0.60;;;0.30;;
15573;SDS011;7888;46.748;8.102;2022-10-16T07:38:26;0.57;;;0.50;;
15573;SDS011;7888;46.748;8.102;2022-10-16T07:41:03;4.17;;;0.77;;
15573;SDS011;7888;46.748;8.102;2022-10-16T07:43:32;3.83;;;0.50;;
15573;SDS011;7888;46.748;8.102;2022-10-16T07:45:59;0.37;;;0.37;;
15573;SDS011;7888;46.748;8.102;2022-10-16T07:48:30;3.70;;;0.70;;
15573;SDS011;7888;46.748;8.102;2022-10-16T07:50:59;1.50;;;0.67;;
15573;SDS011;7888;46.748;8.102;2022-10-16T07:53:30;1.33;;;0.40;;
15573;SDS011;7888;46.748;8.102;2022-10-16T07:55:58;1.90;;;0.30;;
15573;SDS011;7888;46.748;8.102;2022-10-16T07:58:30;0.93;;;0.40;;
15573;SDS011;7888;46.748;8.102;2022-10-16T08:00:58;0.40;;;0.40;;
15573;SDS011;7888;46.748;8.102;2022-10-16T08:03:27;1.03;;;0.50;;
15573;SDS011;7888;46.748;8.102;2022-10-16T08:05:53;1.93;;;0.43;;
15573;SDS011;7888;46.748;8.102;2022-10-16T08:08:19;2.33;;;0.40;;
15573;SDS011;7888;46.748;8.102;2022-10-16T08:10:45;1.70;;;0.33;;
15573;SDS011;7888;46.748;8.102;2022-10-16T08:13:11;2.20;;;0.60;;
15573;SDS011;7888;46.748;8.102;2022-10-16T08:15:39;0.80;;;0.30;;
15573;SDS011;7888;46.748;8.102;2022-10-16T08:18:10;3.03;;;0.40;;
15573;SDS011;7888;46.748;8.102;2022-10-16T08:20:38;1.70;;;0.30;;
15573;SDS011;7888;46.748;8.102;2022-10-16T08:23:07;0.40;;;0.20;;
15573;SDS011;7888;46.748;8.102;2022-10-16T08:25:37;0.73;;;0.43;;
15573;SDS011;7888;46.748;8.102;2022-10-16T08:28:05;0.93;;;0.40;;
15573;SDS011;7888;46.748;8.102;2022-10-16T08:30:33;0.70;;;0.50;;
15573;SDS011;7888;46.748;8.102;2022-10-16T08:33:00;1.63;;;0.40;;
15573;SDS011;7888;46.748;8.102;2022-10-16T08:35:27;2.63;;;0.50;;
15573;SDS011;7888;46.748;8.102;2022-10-16T08:37:53;1.37;;;0.73;;
15573;SDS011;7888;46.748;8.102;2022-10-16T08:40:20;1.03;;;0.57;;
15573;SDS011;7888;46.748;8.102;2022-10-16T08:48:59;1.70;;;0.50;;
15573;SDS011;7888;46.748;8.102;2022-10-16T08:51:29;0.40;;;0.40;;
15573;SDS011;7888;46.748;8.102;2022-10-16T08:54:04;1.70;;;0.50;;
15573;SDS011;7888;46.748;8.102;2022-10-16T08:56:37;1.33;;;0.53;;
15573;SDS011;7888;46.748;8.102;2022-10-16T08:59:03;3.47;;;0.73;;
15573;SDS011;7888;46.748;8.102;2022-10-16T09:01:40;5.83;;;0.90;;
15573;SDS011;7888;46.748;8.102;2022-10-16T09:06:45;1.87;;;0.90;;
15573;SDS011;7888;46.748;8.102;2022-10-16T09:09:31;0.73;;;0.50;;
15573;SDS011;7888;46.748;8.102;2022-10-16T09:12:39;0.53;;;0.50;;
15573;SDS011;7888;46.748;8.102;2022-10-16T09:23:51;0.77;;;0.40;;
15573;SDS011;7888;46.748;8.102;2022-10-16T09:26:18;0.60;;;0.47;;
15573;SDS011;7888;46.748;8.102;2022-10-16T09:28:46;2.20;;;0.47;;
15573;SDS011;7888;46.748;8.102;2022-10-16T09:31:17;0.70;;;0.50;;
15573;SDS011;7888;46.748;8.102;2022-10-16T09:33:46;1.20;;;0.70;;
15573;SDS011;7888;46.748;8.102;2022-10-16T09:36:18;0.50;;;0.50;;
15573;SDS011;7888;46.748;8.102;2022-10-16T09:38:46;0.50;;;0.50;;
15573;SDS011;7888;46.748;8.102;2022-10-16T09:49:03;1.00;;;0.40;;
15573;SDS011;7888;46.748;8.102;2022-10-16T09:51:43;2.00;;;0.47;;
15573;SDS011;7888;46.748;8.102;2022-10-16T09:54:20;2.47;;;0.50;;
15573;SDS011;7888;46.748;8.102;2022-10-16T09:56:47;0.40;;;0.40;;
15573;SDS011;7888;46.748;8.102;2022-10-16T09:59:19;1.07;;;0.40;;
15573;SDS011;7888;46.748;8.102;2022-10-16T10:01:49;0.60;;;0.57;;
15573;SDS011;7888;46.748;8.102;2022-10-16T10:04:21;0.53;;;0.47;;
15573;SDS011;7888;46.748;8.102;2022-10-16T10:06:51;1.10;;;0.60;;
15573;SDS011;7888;46.748;8.102;2022-10-16T10:12:16;1.77;;;0.60;;
15573;SDS011;7888;46.748;8.102;2022-10-16T10:14:50;1.97;;;0.50;;
15573;SDS011;7888;46.748;8.102;2022-10-16T10:17:32;0.90;;;0.50;;
15573;SDS011;7888;46.748;8.102;2022-10-16T10:20:00;3.73;;;0.60;;
15573;SDS011;7888;46.748;8.102;2022-10-16T10:22:44;1.20;;;0.50;;
15573;SDS011;7888;46.748;8.102;2022-10-16T10:38:53;0.40;;;0.40;;
15573;SDS011;7888;46.748;8.102;2022-10-16T10:46:45;1.60;;;0.40;;
15573;SDS011;7888;46.748;8.102;2022-10-16T10:55:43;0.52;;;0.30;;
15573;SDS011;7888;46.748;8.102;2022-10-16T11:04:34;1.95;;;0.40;;
15573;SDS011;7888;46.748;8.102;2022-10-16T11:07:21;2.47;;;0.50;;
15573;SDS011;7888;46.748;8.102;2022-10-16T11:10:05;0.43;;;0.20;;
15573;SDS011;7888;46.748;8.102;2022-10-16T11:12:44;1.25;;;0.20;;
15573;SDS011;7888;46.748;8.102;2022-10-16T11:15:29;0.43;;;0.22;;
15573;SDS011;7888;46.748;8.102;2022-10-16T11:18:06;1.27;;;0.30;;
15573;SDS011;7888;46.748;8.102;2022-10-16T11:20:50;0.40;;;0.30;;
15573;SDS011;7888;46.748;8.102;2022-10-16T11:26:31;0.30;;;0.30;;
15573;SDS011;7888;46.748;8.102;2022-10-16T11:29:03;3.08;;;0.30;;
15573;SDS011;7888;46.748;8.102;2022-10-16T11:31:45;0.55;;;0.30;;
15573;SDS011;7888;46.748;8.102;2022-10-16T11:34:25;0.30;;;0.30;;
15573;SDS011;7888;46.748;8.102;2022-10-16T11:39:40;0.20;;;0.20;;
15573;SDS011;7888;46.748;8.102;2022-10-16T11:42:10;0.20;;;0.20;;
15573;SDS011;7888;46.748;8.102;2022-10-16T11:45:15;2.28;;;0.50;;
15573;SDS011;7888;46.748;8.102;2022-10-16T11:56:18;0.80;;;0.52;;
15573;SDS011;7888;46.748;8.102;2022-10-16T12:07:35;0.30;;;0.30;;
15573;SDS011;7888;46.748;8.102;2022-10-16T12:10:22;1.80;;;0.40;;
15573;SDS011;7888;46.748;8.102;2022-10-16T12:12:54;0.95;;;0.43;;
15573;SDS011;7888;46.748;8.102;2022-10-16T12:15:23;0.63;;;0.30;;
15573;SDS011;7888;46.748;8.102;2022-10-16T12:17:55;0.47;;;0.47;;
15573;SDS011;7888;46.748;8.102;2022-10-16T12:20:29;0.50;;;0.50;;
15573;SDS011;7888;46.748;8.102;2022-10-16T12:23:01;0.98;;;0.40;;
15573;SDS011;7888;46.748;8.102;2022-10-16T12:25:35;0.40;;;0.40;;
15573;SDS011;7888;46.748;8.102;2022-10-16T12:28:18;0.60;;;0.30;;
15573;SDS011;7888;46.748;8.102;2022-10-16T12:31:21;0.30;;;0.30;;
15573;SDS011;7888;46.748;8.102;2022-10-16T12:33:40;1.08;;;0.47;;
15573;SDS011;7888;46.748;8.102;2022-10-16T12:36:30;0.50;;;0.30;;
15573;SDS011;7888;46.748;8.102;2022-10-16T12:38:59;1.13;;;0.30;;
15573;SDS011;7888;46.748;8.102;2022-10-16T12:41:30;1.08;;;0.40;;
15573;SDS011;7888;46.748;8.102;2022-10-16T12:44:04;0.22;;;0.20;;
15573;SDS011;7888;46.748;8.102;2022-10-16T12:46:48;0.57;;;0.20;;
15573;SDS011;7888;46.748;8.102;2022-10-16T12:51:53;0.20;;;0.20;;
15573;SDS011;7888;46.748;8.102;2022-10-16T12:54:22;1.45;;;0.32;;
15573;SDS011;7888;46.748;8.102;2022-10-16T13:11:20;0.45;;;0.30;;
15573;SDS011;7888;46.748;8.102;2022-10-16T13:14:21;0.52;;;0.30;;
15573;SDS011;7888;46.748;8.102;2022-10-16T13:19:58;1.17;;;0.30;;
15573;SDS011;7888;46.748;8.102;2022-10-16T13:23:04;1.25;;;0.50;;
15573;SDS011;7888;46.748;8.102;2022-10-16T13:28:22;0.85;;;0.40;;
15573;SDS011;7888;46.748;8.102;2022-10-16T13:30:57;0.47;;;0.40;;
15573;SDS011;7888;46.748;8.102;2022-10-16T13:33:39;1.50;;;0.47;;
15573;SDS011;7888;46.748;8.102;2022-10-16T13:41:46;1.20;;;0.40;;
15573;SDS011;7888;46.748;8.102;2022-10-16T13:44:45;1.27;;;0.55;;
15573;SDS011;7888;46.748;8.102;2022-10-16T13:47:19;1.02;;;0.93;;
15573;SDS011;7888;46.748;8.102;2022-10-16T13:50:04;2.35;;;0.73;;
15573;SDS011;7888;46.748;8.102;2022-10-16T13:52:42;1.13;;;0.40;;
15573;SDS011;7888;46.748;8.102;2022-10-16T13:55:15;1.33;;;0.40;;
15573;SDS011;7888;46.748;8.102;2022-10-16T13:57:43;1.13;;;0.60;;
15573;SDS011;7888;46.748;8.102;2022-10-16T14:03:04;1.10;;;0.30;;
15573;SDS011;7888;46.748;8.102;2022-10-16T14:05:47;0.75;;;0.40;;
15573;SDS011;7888;46.748;8.102;2022-10-16T14:08:29;0.85;;;0.43;;
15573;SDS011;7888;46.748;8.102;2022-10-16T14:10:57;0.30;;;0.25;;
15573;SDS011;7888;46.748;8.102;2022-10-16T14:13:34;2.35;;;0.52;;
15573;SDS011;7888;46.748;8.102;2022-10-16T14:16:10;0.30;;;0.30;;
15573;SDS011;7888;46.748;8.102;2022-10-16T14:18:45;0.82;;;0.30;;
15573;SDS011;7888;46.748;8.102;2022-10-16T14:21:26;0.30;;;0.30;;
15573;SDS011;7888;46.748;8.102;2022-10-16T14:23:53;1.40;;;0.40;;
15573;SDS011;7888;46.748;8.102;2022-10-16T14:26:21;0.28;;;0.20;;
15573;SDS011;7888;46.748;8.102;2022-10-16T14:29:03;0.40;;;0.22;;
15573;SDS011;7888;46.748;8.102;2022-10-16T14:31:54;1.27;;;0.30;;
15573;SDS011;7888;46.748;8.102;2022-10-16T14:39:54;0.45;;;0.32;;
15573;SDS011;7888;46.748;8.102;2022-10-16T14:42:23;0.30;;;0.30;;
15573;SDS011;7888;46.748;8.102;2022-10-16T14:44:51;0.20;;;0.20;;
15573;SDS011;7888;46.748;8.102;2022-10-16T14:47:20;0.52;;;0.32;;
15573;SDS011;7888;46.748;8.102;2022-10-16T14:49:51;3.58;;;1.83;;
15573;SDS011;7888;46.748;8.102;2022-10-16T14:52:20;1.48;;;1.10;;
15573;SDS011;7888;46.748;8.102;2022-10-16T14:54:50;0.68;;;0.68;;
15573;SDS011;7888;46.748;8.102;2022-10-16T14:57:20;1.35;;;0.60;;
15573;SDS011;7888;46.748;8.102;2022-10-16T14:59:51;0.40;;;0.40;;
15573;SDS011;7888;46.748;8.102;2022-10-16T15:04:56;1.10;;;0.40;;
15573;SDS011;7888;46.748;8.102;2022-10-16T15:07:27;1.27;;;0.30;;
15573;SDS011;7888;46.748;8.102;2022-10-16T15:09:53;1.38;;;0.77;;
15573;SDS011;7888;46.748;8.102;2022-10-16T15:12:19;2.38;;;1.10;;
15573;SDS011;7888;46.748;8.102;2022-10-16T15:14:44;2.25;;;0.43;;
15573;SDS011;7888;46.748;8.102;2022-10-16T15:17:10;0.95;;;0.47;;
15573;SDS011;7888;46.748;8.102;2022-10-16T15:19:36;3.47;;;0.43;;
15573;SDS011;7888;46.748;8.102;2022-10-16T15:22:03;1.15;;;0.40;;
15573;SDS011;7888;46.748;8.102;2022-10-16T15:24:29;1.10;;;0.63;;
15573;SDS011;7888;46.748;8.102;2022-10-16T15:26:55;1.33;;;0.50;;
15573;SDS011;7888;46.748;8.102;2022-10-16T15:29:20;0.50;;;0.50;;
15573;SDS011;7888;46.748;8.102;2022-10-16T15:31:46;0.43;;;0.40;;
15573;SDS011;7888;46.748;8.102;2022-10-16T15:34:12;4.85;;;0.70;;
15573;SDS011;7888;46.748;8.102;2022-10-16T15:36:40;1.10;;;0.55;;
15573;SDS011;7888;46.748;8.102;2022-10-16T15:39:13;1.38;;;0.40;;
15573;SDS011;7888;46.748;8.102;2022-10-16T15:41:43;0.73;;;0.50;;
15573;SDS011;7888;46.748;8.102;2022-10-16T15:44:15;0.80;;;0.50;;
15573;SDS011;7888;46.748;8.102;2022-10-16T15:46:42;1.27;;;0.30;;
15573;SDS011;7888;46.748;8.102;2022-10-16T15:49:08;2.88;;;0.50;;
15573;SDS011;7888;46.748;8.102;2022-10-16T15:51:40;1.38;;;0.50;;
15573;SDS011;7888;46.748;8.102;2022-10-16T15:54:07;2.15;;;0.30;;
15573;SDS011;7888;46.748;8.102;2022-10-16T15:56:34;1.60;;;0.40;;
15573;SDS011;7888;46.748;8.102;2022-10-16T15:59:02;1.65;;;0.40;;
15573;SDS011;7888;46.748;8.102;2022-10-16T16:01:31;1.52;;;0.43;;
15573;SDS011;7888;46.748;8.102;2022-10-16T16:03:59;0.50;;;0.40;;
15573;SDS011;7888;46.748;8.102;2022-10-16T16:06:25;0.95;;;0.50;;
15573;SDS011;7888;46.748;8.102;2022-10-16T16:08:51;1.25;;;0.60;;
15573;SDS011;7888;46.748;8.102;2022-10-16T16:11:18;0.85;;;0.68;;
15573;SDS011;7888;46.748;8.102;2022-10-16T16:13:45;1.08;;;0.50;;
15573;SDS011;7888;46.748;8.102;2022-10-16T16:16:12;3.05;;;0.80;;
15573;SDS011;7888;46.748;8.102;2022-10-16T16:18:40;0.85;;;0.50;;
15573;SDS011;7888;46.748;8.102;2022-10-16T16:21:07;0.63;;;0.60;;
15573;SDS011;7888;46.748;8.102;2022-10-16T16:23:36;0.95;;;0.60;;
15573;SDS011;7888;46.748;8.102;2022-10-16T16:26:12;1.40;;;0.50;;
15573;SDS011;7888;46.748;8.102;2022-10-16T16:29:11;1.15;;;0.40;;
15573;SDS011;7888;46.748;8.102;2022-10-16T16:31:39;3.40;;;0.82;;
15573;SDS011;7888;46.748;8.102;2022-10-16T16:34:06;2.65;;;0.40;;
15573;SDS011;7888;46.748;8.102;2022-10-16T16:36:32;4.22;;;0.60;;
15573;SDS011;7888;46.748;8.102;2022-10-16T16:38:59;0.90;;;0.60;;
15573;SDS011;7888;46.748;8.102;2022-10-16T16:41:26;4.22;;;0.63;;
15573;SDS011;7888;46.748;8.102;2022-10-16T16:43:55;4.35;;;0.77;;
15573;SDS011;7888;46.748;8.102;2022-10-16T16:46:33;0.53;;;0.53;;
15573;SDS011;7888;46.748;8.102;2022-10-16T16:49:00;3.35;;;0.98;;
15573;SDS011;7888;46.748;8.102;2022-10-16T16:51:27;2.33;;;0.75;;
15573;SDS011;7888;46.748;8.102;2022-10-16T16:53:54;2.17;;;0.60;;
15573;SDS011;7888;46.748;8.102;2022-10-16T16:56:20;0.80;;;0.60;;
15573;SDS011;7888;46.748;8.102;2022-10-16T16:58:48;3.92;;;0.73;;
15573;SDS011;7888;46.748;8.102;2022-10-16T17:01:17;3.20;;;1.83;;
15573;SDS011;7888;46.748;8.102;2022-10-16T17:03:43;3.45;;;1.65;;
15573;SDS011;7888;46.748;8.102;2022-10-16T17:06:11;1.90;;;1.20;;
15573;SDS011;7888;46.748;8.102;2022-10-16T17:08:39;2.87;;;1.20;;
15573;SDS011;7888;46.748;8.102;2022-10-16T17:11:11;2.20;;;1.00;;
15573;SDS011;7888;46.748;8.102;2022-10-16T17:13:42;2.13;;;1.27;;
15573;SDS011;7888;46.748;8.102;2022-10-16T17:16:08;3.83;;;1.55;;
15573;SDS011;7888;46.748;8.102;2022-10-16T17:18:34;3.73;;;0.90;;
15573;SDS011;7888;46.748;8.102;2022-10-16T17:21:02;3.03;;;1.10;;
15573;SDS011;7888;46.748;8.102;2022-10-16T17:23:31;2.63;;;1.20;;
15573;SDS011;7888;46.748;8.102;2022-10-16T17:26:03;3.07;;;1.40;;
15573;SDS011;7888;46.748;8.102;2022-10-16T17:28:37;2.20;;;1.40;;
15573;SDS011;7888;46.748;8.102;2022-10-16T17:33:42;1.43;;;0.70;;
15573;SDS011;7888;46.748;8.102;2022-10-16T17:36:09;2.57;;;0.80;;
15573;SDS011;7888;46.748;8.102;2022-10-16T17:38:38;4.33;;;1.00;;
15573;SDS011;7888;46.748;8.102;2022-10-16T17:41:13;3.43;;;1.10;;
15573;SDS011;7888;46.748;8.102;2022-10-16T17:43:45;4.93;;;0.73;;
15573;SDS011;7888;46.748;8.102;2022-10-16T17:46:13;3.77;;;0.83;;
15573;SDS011;7888;46.748;8.102;2022-10-16T17:48:42;0.90;;;0.80;;
15573;SDS011;7888;46.748;8.102;2022-10-16T17:51:13;0.97;;;0.87;;
15573;SDS011;7888;46.748;8.102;2022-10-16T17:53:42;1.80;;;1.70;;